sensor_id;sensor_type;location;lat;lon;timestamp;pressure;altitude;pressure_sealevel;temperature;humidity
37238;BME280;23129;49.662;8.448;2023-07-13T00:01:14;100590.94;;;19.69;68.82
37238;BME280;23129;49.662;8.448;2023-07-13T00:03:42;100601.97;;;19.63;69.20
37238;BME280;23129;49.662;8.448;2023-07-13T00:06:11;100601.56;;;19.54;69.54
37238;BME280;23129;49.662;8.448;2023-07-13T00:08:40;100612.59;;;19.48;69.39
37238;BME280;23129;49.662;8.448;2023-07-13T00:11:09;100608.59;;;19.41;69.51
37238;BME280;23129;49.662;8.448;2023-07-13T00:13:38;100607.47;;;19.31;69.84
37238;BME280;23129;49.662;8.448;2023-07-13T00:16:09;100610.59;;;19.23;70.06
37238;BME280;23129;49.662;8.448;2023-07-13T00:18:39;100608.41;;;19.15;70.59
37238;BME280;23129;49.662;8.448;2023-07-13T00:21:07;100612.38;;;19.08;70.96
37238;BME280;23129;49.662;8.448;2023-07-13T00:23:38;100609.16;;;19.03;70.95
37238;BME280;23129;49.662;8.448;2023-07-13T00:26:08;100619.03;;;19.01;71.34
37238;BME280;23129;49.662;8.448;2023-07-13T00:28:39;100615.50;;;19.01;71.23
37238;BME280;23129;49.662;8.448;2023-07-13T00:31:11;100620.72;;;19.02;71.46
37238;BME280;23129;49.662;8.448;2023-07-13T00:33:42;100619.78;;;19.03;71.45
37238;BME280;23129;49.662;8.448;2023-07-13T00:36:11;100614.38;;;19.05;71.24
37238;BME280;23129;49.662;8.448;2023-07-13T00:38:40;100619.59;;;19.06;71.58
37238;BME280;23129;49.662;8.448;2023-07-13T00:41:09;100616.00;;;19.07;71.54
37238;BME280;23129;49.662;8.448;2023-07-13T00:43:38;100616.00;;;19.07;71.25
37238;BME280;23129;49.662;8.448;2023-07-13T00:46:19;100623.19;;;19.05;71.56
37238;BME280;23129;49.662;8.448;2023-07-13T00:48:49;100624.25;;;19.03;71.44
37238;BME280;23129;49.662;8.448;2023-07-13T00:51:28;100611.03;;;19.01;71.58
37238;BME280;23129;49.662;8.448;2023-07-13T00:54:04;100615.59;;;18.99;71.73
37238;BME280;23129;49.662;8.448;2023-07-13T00:56:33;100621.00;;;18.98;71.65
37238;BME280;23129;49.662;8.448;2023-07-13T00:59:04;100623.75;;;18.96;71.42
37238;BME280;23129;49.662;8.448;2023-07-13T01:01:35;100625.66;;;18.94;71.60
37238;BME280;23129;49.662;8.448;2023-07-13T01:04:04;100627.56;;;18.92;71.67
37238;BME280;23129;49.662;8.448;2023-07-13T01:06:35;100632.09;;;18.90;71.67
37238;BME280;23129;49.662;8.448;2023-07-13T01:09:06;100627.91;;;18.86;71.54
37238;BME280;23129;49.662;8.448;2023-07-13T01:11:36;100622.78;;;18.83;71.87
37238;BME280;23129;49.662;8.448;2023-07-13T01:14:05;100631.91;;;18.79;71.99
37238;BME280;23129;49.662;8.448;2023-07-13T01:16:37;100636.44;;;18.77;72.34
37238;BME280;23129;49.662;8.448;2023-07-13T01:19:15;100633.00;;;18.75;72.24
37238;BME280;23129;49.662;8.448;2023-07-13T01:21:51;100633.16;;;18.71;72.47
37238;BME280;23129;49.662;8.448;2023-07-13T01:24:20;100636.84;;;18.69;72.37
37238;BME280;23129;49.662;8.448;2023-07-13T01:26:49;100627.34;;;18.65;72.78
37238;BME280;23129;49.662;8.448;2023-07-13T01:29:18;100631.03;;;18.62;72.67
37238;BME280;23129;49.662;8.448;2023-07-13T01:31:46;100631.16;;;18.61;73.08
37238;BME280;23129;49.662;8.448;2023-07-13T01:34:15;100632.25;;;18.57;73.35
37238;BME280;23129;49.662;8.448;2023-07-13T01:36:44;100635.00;;;18.55;73.47
37238;BME280;23129;49.662;8.448;2023-07-13T01:39:14;100640.50;;;18.52;73.21
37238;BME280;23129;49.662;8.448;2023-07-13T01:41:44;100641.53;;;18.50;73.71
37238;BME280;23129;49.662;8.448;2023-07-13T01:44:13;100638.94;;;18.48;73.72
37238;BME280;23129;49.662;8.448;2023-07-13T01:46:41;100640.06;;;18.44;73.87
37238;BME280;23129;49.662;8.448;2023-07-13T01:49:11;100636.75;;;18.40;73.60
37238;BME280;23129;49.662;8.448;2023-07-13T01:51:39;100641.56;;;18.34;73.89
37238;BME280;23129;49.662;8.448;2023-07-13T01:54:08;100640.00;;;18.30;74.02
37238;BME280;23129;49.662;8.448;2023-07-13T01:56:38;100642.06;;;18.24;74.03
37238;BME280;23129;49.662;8.448;2023-07-13T01:59:07;100645.06;;;18.18;74.21
37238;BME280;23129;49.662;8.448;2023-07-13T02:01:36;100646.19;;;18.14;74.27
37238;BME280;23129;49.662;8.448;2023-07-13T02:04:05;100653.53;;;18.09;74.55
37238;BME280;23129;49.662;8.448;2023-07-13T02:06:34;100654.72;;;18.03;74.88
37238;BME280;23129;49.662;8.448;2023-07-13T02:09:02;100659.47;;;17.98;74.82
37238;BME280;23129;49.662;8.448;2023-07-13T02:11:32;100650.81;;;17.95;75.04
37238;BME280;23129;49.662;8.448;2023-07-13T02:14:03;100650.97;;;17.92;75.34
37238;BME280;23129;49.662;8.448;2023-07-13T02:16:32;100662.63;;;17.89;75.17
37238;BME280;23129;49.662;8.448;2023-07-13T02:19:01;100668.97;;;17.87;75.41
37238;BME280;23129;49.662;8.448;2023-07-13T02:21:29;100663.81;;;17.84;75.43
37238;BME280;23129;49.662;8.448;2023-07-13T02:23:58;100664.91;;;17.79;75.79
37238;BME280;23129;49.662;8.448;2023-07-13T02:26:27;100673.88;;;17.77;75.83
37238;BME280;23129;49.662;8.448;2023-07-13T02:28:56;100662.56;;;17.73;75.78
37238;BME280;23129;49.662;8.448;2023-07-13T02:31:26;100668.03;;;17.70;76.16
37238;BME280;23129;49.662;8.448;2023-07-13T02:33:54;100670.00;;;17.67;76.28
37238;BME280;23129;49.662;8.448;2023-07-13T02:36:23;100669.31;;;17.63;76.39
37238;BME280;23129;49.662;8.448;2023-07-13T02:38:52;100665.97;;;17.60;76.56
37238;BME280;23129;49.662;8.448;2023-07-13T02:41:20;100669.69;;;17.55;76.55
37238;BME280;23129;49.662;8.448;2023-07-13T02:43:50;100672.44;;;17.54;76.55
37238;BME280;23129;49.662;8.448;2023-07-13T02:46:18;100672.63;;;17.51;77.04
37238;BME280;23129;49.662;8.448;2023-07-13T02:48:49;100668.31;;;17.48;77.24
37238;BME280;23129;49.662;8.448;2023-07-13T02:51:20;100672.00;;;17.46;77.10
37238;BME280;23129;49.662;8.448;2023-07-13T02:53:49;100667.63;;;17.45;77.35
37238;BME280;23129;49.662;8.448;2023-07-13T02:56:21;100670.34;;;17.43;77.39
37238;BME280;23129;49.662;8.448;2023-07-13T02:58:51;100673.09;;;17.42;77.52
37238;BME280;23129;49.662;8.448;2023-07-13T03:01:21;100664.19;;;17.43;77.72
37238;BME280;23129;49.662;8.448;2023-07-13T03:03:51;100666.94;;;17.41;77.83
37238;BME280;23129;49.662;8.448;2023-07-13T03:06:21;100667.97;;;17.39;77.72
37238;BME280;23129;49.662;8.448;2023-07-13T03:08:53;100678.72;;;17.36;78.11
37238;BME280;23129;49.662;8.448;2023-07-13T03:11:23;100676.25;;;17.32;77.99
37238;BME280;23129;49.662;8.448;2023-07-13T03:13:58;100677.31;;;17.28;78.46
37238;BME280;23129;49.662;8.448;2023-07-13T03:16:30;100677.47;;;17.25;78.43
37238;BME280;23129;49.662;8.448;2023-07-13T03:19:00;100672.34;;;17.22;78.68
37238;BME280;23129;49.662;8.448;2023-07-13T03:21:30;100683.09;;;17.19;78.60
37238;BME280;23129;49.662;8.448;2023-07-13T03:23:58;100683.25;;;17.16;78.81
37238;BME280;23129;49.662;8.448;2023-07-13T03:26:28;100687.00;;;17.12;78.96
37238;BME280;23129;49.662;8.448;2023-07-13T03:28:57;100684.44;;;17.10;79.16
37238;BME280;23129;49.662;8.448;2023-07-13T03:31:28;100688.03;;;17.09;79.24
37238;BME280;23129;49.662;8.448;2023-07-13T03:33:57;100693.38;;;17.08;79.37
37238;BME280;23129;49.662;8.448;2023-07-13T03:36:29;100699.63;;;17.07;79.34
37238;BME280;23129;49.662;8.448;2023-07-13T03:39:03;100691.94;;;17.02;79.63
37238;BME280;23129;49.662;8.448;2023-07-13T03:41:47;100686.78;;;16.99;79.68
37238;BME280;23129;49.662;8.448;2023-07-13T03:44:17;100699.16;;;16.99;79.59
37238;BME280;23129;49.662;8.448;2023-07-13T03:46:49;100693.09;;;16.97;79.73
37238;BME280;23129;49.662;8.448;2023-07-13T03:49:18;100693.09;;;16.97;79.85
37238;BME280;23129;49.662;8.448;2023-07-13T03:51:48;100692.25;;;16.96;79.89
37238;BME280;23129;49.662;8.448;2023-07-13T03:54:20;100692.31;;;16.95;79.91
37238;BME280;23129;49.662;8.448;2023-07-13T03:56:49;100699.41;;;16.94;79.88
37238;BME280;23129;49.662;8.448;2023-07-13T03:59:19;100696.81;;;16.93;79.91
37238;BME280;23129;49.662;8.448;2023-07-13T04:01:47;100701.25;;;16.92;80.10
37238;BME280;23129;49.662;8.448;2023-07-13T04:04:16;100699.47;;;16.93;80.34
37238;BME280;23129;49.662;8.448;2023-07-13T04:06:46;100706.56;;;16.92;80.24
37238;BME280;23129;49.662;8.448;2023-07-13T04:09:15;100708.41;;;16.90;80.44
37238;BME280;23129;49.662;8.448;2023-07-13T04:11:43;100704.47;;;16.81;80.58
37238;BME280;23129;49.662;8.448;2023-07-13T04:14:12;100712.91;;;16.71;80.83
37238;BME280;23129;49.662;8.448;2023-07-13T04:16:41;100710.75;;;16.60;81.35
37238;BME280;23129;49.662;8.448;2023-07-13T04:19:11;100713.78;;;16.52;81.84
37238;BME280;23129;49.662;8.448;2023-07-13T04:21:39;100707.66;;;16.52;82.00
37238;BME280;23129;49.662;8.448;2023-07-13T04:24:09;100712.78;;;16.55;81.97
37238;BME280;23129;49.662;8.448;2023-07-13T04:26:38;100712.66;;;16.58;82.14
37238;BME280;23129;49.662;8.448;2023-07-13T04:29:07;100723.09;;;16.61;81.88
37238;BME280;23129;49.662;8.448;2023-07-13T04:31:35;100733.69;;;16.61;82.29
37238;BME280;23129;49.662;8.448;2023-07-13T04:34:04;100733.69;;;16.61;82.23
37238;BME280;23129;49.662;8.448;2023-07-13T04:36:33;100724.78;;;16.62;82.44
37238;BME280;23129;49.662;8.448;2023-07-13T04:39:05;100726.50;;;16.63;82.57
37238;BME280;23129;49.662;8.448;2023-07-13T04:41:35;100739.75;;;16.63;82.86
37238;BME280;23129;49.662;8.448;2023-07-13T04:44:04;100724.78;;;16.62;82.63
37238;BME280;23129;49.662;8.448;2023-07-13T04:46:33;100738.88;;;16.62;82.93
37238;BME280;23129;49.662;8.448;2023-07-13T04:49:02;100736.09;;;16.65;82.95
37238;BME280;23129;49.662;8.448;2023-07-13T04:51:31;100733.22;;;16.70;82.96
37238;BME280;23129;49.662;8.448;2023-07-13T04:53:59;100732.13;;;16.76;83.03
37238;BME280;23129;49.662;8.448;2023-07-13T04:56:28;100733.53;;;16.83;82.99
37238;BME280;23129;49.662;8.448;2023-07-13T04:58:59;100735.88;;;16.89;82.85
37238;BME280;23129;49.662;8.448;2023-07-13T05:01:27;100732.06;;;16.95;82.92
37238;BME280;23129;49.662;8.448;2023-07-13T05:03:56;100727.41;;;17.00;82.84
37238;BME280;23129;49.662;8.448;2023-07-13T05:06:26;100736.75;;;17.07;82.80
37238;BME280;23129;49.662;8.448;2023-07-13T05:08:55;100731.97;;;17.14;82.93
37238;BME280;23129;49.662;8.448;2023-07-13T05:11:24;100741.41;;;17.19;82.61
37238;BME280;23129;49.662;8.448;2023-07-13T05:13:53;100748.31;;;17.23;82.76
37238;BME280;23129;49.662;8.448;2023-07-13T05:16:23;100742.75;;;17.28;82.87
37238;BME280;23129;49.662;8.448;2023-07-13T05:18:51;100744.38;;;17.30;82.79
37238;BME280;23129;49.662;8.448;2023-07-13T05:21:20;100751.19;;;17.36;82.74
37238;BME280;23129;49.662;8.448;2023-07-13T05:23:49;100749.22;;;17.40;82.67
37238;BME280;23129;49.662;8.448;2023-07-13T05:26:18;100750.78;;;17.44;82.65
37238;BME280;23129;49.662;8.448;2023-07-13T05:28:48;100750.59;;;17.47;82.80
37238;BME280;23129;49.662;8.448;2023-07-13T05:31:16;100760.94;;;17.53;82.64
37238;BME280;23129;49.662;8.448;2023-07-13T05:33:46;100753.56;;;17.58;82.70
37238;BME280;23129;49.662;8.448;2023-07-13T05:36:15;100759.41;;;17.65;82.50
37238;BME280;23129;49.662;8.448;2023-07-13T05:38:44;100761.66;;;17.72;82.27
37238;BME280;23129;49.662;8.448;2023-07-13T05:41:12;100764.97;;;17.77;82.18
37238;BME280;23129;49.662;8.448;2023-07-13T05:43:41;100762.84;;;17.84;82.30
37238;BME280;23129;49.662;8.448;2023-07-13T05:46:09;100767.91;;;17.89;82.04
37238;BME280;23129;49.662;8.448;2023-07-13T05:48:38;100771.19;;;17.94;81.94
37238;BME280;23129;49.662;8.448;2023-07-13T05:51:09;100765.69;;;17.97;81.96
37238;BME280;23129;49.662;8.448;2023-07-13T05:53:38;100767.19;;;18.02;81.62
37238;BME280;23129;49.662;8.448;2023-07-13T05:56:06;100766.78;;;18.10;81.35
37238;BME280;23129;49.662;8.448;2023-07-13T05:58:35;100765.59;;;18.16;80.96
37238;BME280;23129;49.662;8.448;2023-07-13T06:01:06;100764.38;;;18.21;81.03
37238;BME280;23129;49.662;8.448;2023-07-13T06:03:36;100759.59;;;18.28;80.64
37238;BME280;23129;49.662;8.448;2023-07-13T06:06:05;100770.75;;;18.35;80.35
37238;BME280;23129;49.662;8.448;2023-07-13T06:08:36;100770.41;;;18.41;80.34
37238;BME280;23129;49.662;8.448;2023-07-13T06:11:07;100770.91;;;18.47;80.08
37238;BME280;23129;49.662;8.448;2023-07-13T06:13:37;100769.72;;;18.53;80.13
37238;BME280;23129;49.662;8.448;2023-07-13T06:16:05;100771.06;;;18.60;80.17
37238;BME280;23129;49.662;8.448;2023-07-13T06:18:35;100783.09;;;18.67;79.89
37238;BME280;23129;49.662;8.448;2023-07-13T06:21:07;100780.91;;;18.76;79.60
37238;BME280;23129;49.662;8.448;2023-07-13T06:23:38;100780.44;;;18.83;79.20
37238;BME280;23129;49.662;8.448;2023-07-13T06:26:07;100783.59;;;18.90;78.95
37238;BME280;23129;49.662;8.448;2023-07-13T06:28:37;100787.66;;;18.97;78.99
37238;BME280;23129;49.662;8.448;2023-07-13T06:31:09;100786.34;;;19.04;78.99
37238;BME280;23129;49.662;8.448;2023-07-13T06:33:38;100785.97;;;19.10;78.62
37238;BME280;23129;49.662;8.448;2023-07-13T06:36:08;100785.44;;;19.20;78.44
37238;BME280;23129;49.662;8.448;2023-07-13T06:38:38;100799.16;;;19.28;78.29
37238;BME280;23129;49.662;8.448;2023-07-13T06:41:07;100799.56;;;19.36;77.99
37238;BME280;23129;49.662;8.448;2023-07-13T06:43:37;100792.75;;;19.46;77.23
37238;BME280;23129;49.662;8.448;2023-07-13T06:46:06;100802.84;;;19.55;75.73
37238;BME280;23129;49.662;8.448;2023-07-13T06:48:35;100801.41;;;19.66;75.35
37238;BME280;23129;49.662;8.448;2023-07-13T06:51:04;100807.69;;;19.79;74.25
37238;BME280;23129;49.662;8.448;2023-07-13T06:53:32;100801.97;;;19.85;74.29
37238;BME280;23129;49.662;8.448;2023-07-13T06:56:02;100800.50;;;19.95;74.22
37238;BME280;23129;49.662;8.448;2023-07-13T06:58:33;100799.72;;;20.08;73.82
37238;BME280;23129;49.662;8.448;2023-07-13T07:01:02;100801.63;;;20.20;73.09
37238;BME280;23129;49.662;8.448;2023-07-13T07:03:32;100805.22;;;20.33;72.31
37238;BME280;23129;49.662;8.448;2023-07-13T07:06:01;100802.53;;;20.47;71.81
37238;BME280;23129;49.662;8.448;2023-07-13T07:08:30;100807.97;;;20.60;71.08
37238;BME280;23129;49.662;8.448;2023-07-13T07:10:59;100811.47;;;20.75;70.86
37238;BME280;23129;49.662;8.448;2023-07-13T07:13:28;100811.31;;;20.91;69.71
37238;BME280;23129;49.662;8.448;2023-07-13T07:15:57;100809.38;;;21.07;69.59
37238;BME280;23129;49.662;8.448;2023-07-13T07:18:27;100811.03;;;21.23;68.77
37238;BME280;23129;49.662;8.448;2023-07-13T07:20:55;100810.88;;;21.38;68.06
37238;BME280;23129;49.662;8.448;2023-07-13T07:23:24;100812.50;;;21.54;66.75
37238;BME280;23129;49.662;8.448;2023-07-13T07:25:53;100808.81;;;21.69;67.21
37238;BME280;23129;49.662;8.448;2023-07-13T07:28:21;100807.84;;;21.83;66.77
37238;BME280;23129;49.662;8.448;2023-07-13T07:30:56;100803.47;;;21.95;65.99
37238;BME280;23129;49.662;8.448;2023-07-13T07:33:28;100804.34;;;22.08;65.86
37238;BME280;23129;49.662;8.448;2023-07-13T07:35:56;100801.56;;;22.22;65.84
37238;BME280;23129;49.662;8.448;2023-07-13T07:38:28;100815.44;;;22.40;64.66
37238;BME280;23129;49.662;8.448;2023-07-13T07:40:57;100813.28;;;22.45;64.34
37238;BME280;23129;49.662;8.448;2023-07-13T07:43:28;100804.28;;;22.59;63.81
37238;BME280;23129;49.662;8.448;2023-07-13T07:45:58;100811.94;;;22.76;63.94
37238;BME280;23129;49.662;8.448;2023-07-13T07:48:34;100813.06;;;23.22;63.03
37238;BME280;23129;49.662;8.448;2023-07-13T07:51:03;100810.47;;;23.91;62.25
37238;BME280;23129;49.662;8.448;2023-07-13T07:53:31;100803.41;;;24.69;60.07
37238;BME280;23129;49.662;8.448;2023-07-13T07:56:00;100808.31;;;25.39;59.14
37238;BME280;23129;49.662;8.448;2023-07-13T07:58:49;100807.63;;;26.00;57.96
37238;BME280;23129;49.662;8.448;2023-07-13T08:01:22;100803.72;;;26.45;58.08
37238;BME280;23129;49.662;8.448;2023-07-13T08:03:54;100801.44;;;27.00;56.98
37238;BME280;23129;49.662;8.448;2023-07-13T08:06:25;100805.88;;;27.20;55.47
37238;BME280;23129;49.662;8.448;2023-07-13T08:08:56;100795.94;;;27.30;55.36
37238;BME280;23129;49.662;8.448;2023-07-13T08:11:25;100797.19;;;27.46;54.73
37238;BME280;23129;49.662;8.448;2023-07-13T08:13:56;100807.00;;;27.47;54.34
37238;BME280;23129;49.662;8.448;2023-07-13T08:16:26;100811.78;;;27.72;53.24
37238;BME280;23129;49.662;8.448;2023-07-13T08:18:55;100814.34;;;27.84;52.51
37238;BME280;23129;49.662;8.448;2023-07-13T08:21:23;100808.38;;;27.70;51.30
37238;BME280;23129;49.662;8.448;2023-07-13T08:23:52;100805.00;;;27.49;50.73
37238;BME280;23129;49.662;8.448;2023-07-13T08:26:21;100798.91;;;27.37;49.95
37238;BME280;23129;49.662;8.448;2023-07-13T08:28:49;100802.72;;;27.54;49.30
37238;BME280;23129;49.662;8.448;2023-07-13T08:31:18;100800.47;;;27.59;49.28
37238;BME280;23129;49.662;8.448;2023-07-13T08:33:47;100804.09;;;27.77;49.17
37238;BME280;23129;49.662;8.448;2023-07-13T08:36:16;100795.88;;;27.89;48.89
37238;BME280;23129;49.662;8.448;2023-07-13T08:38:44;100797.09;;;28.04;47.83
37238;BME280;23129;49.662;8.448;2023-07-13T08:41:15;100790.41;;;28.08;47.91
37238;BME280;23129;49.662;8.448;2023-07-13T08:43:47;100784.13;;;27.70;48.04
37238;BME280;23129;49.662;8.448;2023-07-13T08:46:21;100800.34;;;27.22;48.67
37238;BME280;23129;49.662;8.448;2023-07-13T08:48:59;100799.16;;;26.85;48.05
37238;BME280;23129;49.662;8.448;2023-07-13T08:51:38;100799.81;;;26.68;48.06
37238;BME280;23129;49.662;8.448;2023-07-13T08:54:20;100792.91;;;26.75;48.34
37238;BME280;23129;49.662;8.448;2023-07-13T08:56:51;100794.47;;;27.07;47.77
37238;BME280;23129;49.662;8.448;2023-07-13T08:59:24;100783.75;;;27.36;46.88
37238;BME280;23129;49.662;8.448;2023-07-13T09:02:18;100791.94;;;27.54;46.63
37238;BME280;23129;49.662;8.448;2023-07-13T09:04:54;100794.78;;;27.62;45.67
37238;BME280;23129;49.662;8.448;2023-07-13T09:07:34;100795.91;;;27.79;45.79
37238;BME280;23129;49.662;8.448;2023-07-13T09:10:17;100781.69;;;27.77;45.64
37238;BME280;23129;49.662;8.448;2023-07-13T09:12:57;100779.59;;;27.71;45.42
37238;BME280;23129;49.662;8.448;2023-07-13T09:15:31;100779.44;;;27.63;44.97
37238;BME280;23129;49.662;8.448;2023-07-13T09:18:02;100782.97;;;27.73;43.94
37238;BME280;23129;49.662;8.448;2023-07-13T09:20:40;100781.13;;;27.73;44.09
37238;BME280;23129;49.662;8.448;2023-07-13T09:23:20;100775.41;;;27.96;42.46
37238;BME280;23129;49.662;8.448;2023-07-13T09:25:53;100781.94;;;28.31;42.06
37238;BME280;23129;49.662;8.448;2023-07-13T09:28:26;100779.75;;;28.44;41.80
37238;BME280;23129;49.662;8.448;2023-07-13T09:31:01;100771.69;;;28.62;41.95
37238;BME280;23129;49.662;8.448;2023-07-13T09:33:32;100765.84;;;28.49;41.17
37238;BME280;23129;49.662;8.448;2023-07-13T09:36:18;100772.81;;;28.41;40.44
37238;BME280;23129;49.662;8.448;2023-07-13T09:38:48;100772.53;;;28.07;41.11
37238;BME280;23129;49.662;8.448;2023-07-13T09:41:23;100784.53;;;27.75;41.33
37238;BME280;23129;49.662;8.448;2023-07-13T09:44:06;100782.69;;;27.86;41.57
37238;BME280;23129;49.662;8.448;2023-07-13T09:46:36;100780.25;;;27.92;40.98
37238;BME280;23129;49.662;8.448;2023-07-13T09:49:06;100777.81;;;27.99;40.74
37238;BME280;23129;49.662;8.448;2023-07-13T09:51:38;100776.03;;;27.70;41.09
37238;BME280;23129;49.662;8.448;2023-07-13T09:54:19;100768.25;;;27.58;41.10
37238;BME280;23129;49.662;8.448;2023-07-13T09:56:48;100786.41;;;27.46;41.20
37238;BME280;23129;49.662;8.448;2023-07-13T09:59:23;100778.34;;;27.56;40.72
37238;BME280;23129;49.662;8.448;2023-07-13T10:01:52;100782.56;;;27.68;40.02
37238;BME280;23129;49.662;8.448;2023-07-13T10:04:30;100778.88;;;27.88;39.55
37238;BME280;23129;49.662;8.448;2023-07-13T10:07:11;100782.97;;;28.20;39.54
37238;BME280;23129;49.662;8.448;2023-07-13T10:09:57;100775.47;;;28.51;37.72
37238;BME280;23129;49.662;8.448;2023-07-13T10:12:30;100776.69;;;28.29;38.05
37238;BME280;23129;49.662;8.448;2023-07-13T10:15:14;100780.44;;;28.18;38.06
37238;BME280;23129;49.662;8.448;2023-07-13T10:17:52;100774.16;;;28.28;37.49
37238;BME280;23129;49.662;8.448;2023-07-13T10:20:22;100775.84;;;28.29;37.39
37238;BME280;23129;49.662;8.448;2023-07-13T10:22:56;100771.88;;;28.60;37.11
37238;BME280;23129;49.662;8.448;2023-07-13T10:25:31;100795.72;;;28.83;36.68
37238;BME280;23129;49.662;8.448;2023-07-13T10:28:04;100776.75;;;28.93;36.74
37238;BME280;23129;49.662;8.448;2023-07-13T10:30:41;100762.06;;;29.05;35.89
37238;BME280;23129;49.662;8.448;2023-07-13T10:33:12;100776.84;;;29.19;35.70
37238;BME280;23129;49.662;8.448;2023-07-13T10:35:43;100780.88;;;29.32;34.89
37238;BME280;23129;49.662;8.448;2023-07-13T10:38:18;100759.91;;;29.34;35.04
37238;BME280;23129;49.662;8.448;2023-07-13T10:40:53;100775.44;;;29.50;34.40
37238;BME280;23129;49.662;8.448;2023-07-13T10:43:27;100771.50;;;29.63;34.75
37238;BME280;23129;49.662;8.448;2023-07-13T10:45:59;100776.41;;;29.93;34.98
37238;BME280;23129;49.662;8.448;2023-07-13T10:48:28;100785.97;;;30.14;34.33
37238;BME280;23129;49.662;8.448;2023-07-13T10:50:59;100770.81;;;30.21;34.05
37238;BME280;23129;49.662;8.448;2023-07-13T10:53:32;100769.50;;;30.33;34.22
37238;BME280;23129;49.662;8.448;2023-07-13T10:56:02;100763.59;;;30.30;33.68
37238;BME280;23129;49.662;8.448;2023-07-13T10:58:34;100775.78;;;30.34;33.59
37238;BME280;23129;49.662;8.448;2023-07-13T11:01:08;100763.81;;;30.44;33.82
37238;BME280;23129;49.662;8.448;2023-07-13T11:03:46;100764.75;;;30.27;33.99
37238;BME280;23129;49.662;8.448;2023-07-13T11:06:30;100771.16;;;29.92;35.42
37238;BME280;23129;49.662;8.448;2023-07-13T11:09:30;100763.63;;;30.12;34.85
37238;BME280;23129;49.662;8.448;2023-07-13T11:12:00;100761.75;;;30.38;34.26
37238;BME280;23129;49.662;8.448;2023-07-13T11:14:34;100754.06;;;30.76;34.64
37238;BME280;23129;49.662;8.448;2023-07-13T11:17:32;100789.69;;;31.14;32.73
37238;BME280;23129;49.662;8.448;2023-07-13T11:20:30;100771.41;;;30.91;32.23
37238;BME280;23129;49.662;8.448;2023-07-13T11:23:21;100764.19;;;30.66;33.22
37238;BME280;23129;49.662;8.448;2023-07-13T11:25:56;100758.09;;;30.13;33.65
37238;BME280;23129;49.662;8.448;2023-07-13T11:28:30;100768.94;;;29.87;34.11
37238;BME280;23129;49.662;8.448;2023-07-13T11:31:13;100751.66;;;29.80;34.44
37238;BME280;23129;49.662;8.448;2023-07-13T11:33:53;100754.13;;;29.47;34.71
37238;BME280;23129;49.662;8.448;2023-07-13T11:36:24;100755.38;;;28.99;34.85
37238;BME280;23129;49.662;8.448;2023-07-13T11:39:00;100765.75;;;28.58;35.41
37238;BME280;23129;49.662;8.448;2023-07-13T11:41:35;100755.34;;;28.36;35.86
37238;BME280;23129;49.662;8.448;2023-07-13T11:44:17;100765.63;;;28.78;35.21
37238;BME280;23129;49.662;8.448;2023-07-13T11:46:47;100756.63;;;29.41;33.63
37238;BME280;23129;49.662;8.448;2023-07-13T11:49:25;100758.22;;;30.03;32.72
37238;BME280;23129;49.662;8.448;2023-07-13T11:51:55;100744.91;;;30.61;32.78
37238;BME280;23129;49.662;8.448;2023-07-13T11:54:27;100744.66;;;31.13;31.57
37238;BME280;23129;49.662;8.448;2023-07-13T11:57:01;100746.50;;;31.29;31.93
37238;BME280;23129;49.662;8.448;2023-07-13T11:59:34;100760.91;;;31.13;31.81
37238;BME280;23129;49.662;8.448;2023-07-13T12:02:16;100768.22;;;30.45;33.02
37238;BME280;23129;49.662;8.448;2023-07-13T12:04:46;100756.19;;;29.79;33.58
37238;BME280;23129;49.662;8.448;2023-07-13T12:07:17;100755.00;;;29.30;34.21
37238;BME280;23129;49.662;8.448;2023-07-13T12:09:46;100771.03;;;28.78;34.57
37238;BME280;23129;49.662;8.448;2023-07-13T12:12:20;100761.59;;;28.46;35.20
37238;BME280;23129;49.662;8.448;2023-07-13T12:14:51;100771.53;;;28.46;35.53
37238;BME280;23129;49.662;8.448;2023-07-13T12:17:24;100758.97;;;28.54;35.16
37238;BME280;23129;49.662;8.448;2023-07-13T12:19:53;100762.94;;;28.60;35.27
37238;BME280;23129;49.662;8.448;2023-07-13T12:22:22;100756.34;;;28.62;35.28
37238;BME280;23129;49.662;8.448;2023-07-13T12:24:52;100771.16;;;28.58;35.04
37238;BME280;23129;49.662;8.448;2023-07-13T12:27:24;100773.03;;;28.58;35.28
37238;BME280;23129;49.662;8.448;2023-07-13T12:29:58;100772.56;;;28.62;34.91
37238;BME280;23129;49.662;8.448;2023-07-13T12:32:28;100768.59;;;28.57;34.78
37238;BME280;23129;49.662;8.448;2023-07-13T12:35:14;100761.44;;;28.65;34.16
37238;BME280;23129;49.662;8.448;2023-07-13T12:37:43;100762.06;;;29.05;34.04
37238;BME280;23129;49.662;8.448;2023-07-13T12:40:14;100766.69;;;29.56;32.81
37238;BME280;23129;49.662;8.448;2023-07-13T12:42:47;100774.09;;;29.54;33.32
37238;BME280;23129;49.662;8.448;2023-07-13T12:45:19;100787.19;;;29.41;32.80
37238;BME280;23129;49.662;8.448;2023-07-13T12:47:52;100772.16;;;29.21;32.90
37238;BME280;23129;49.662;8.448;2023-07-13T12:50:23;100778.50;;;29.11;33.31
37238;BME280;23129;49.662;8.448;2023-07-13T12:52:54;100774.38;;;29.07;33.22
37238;BME280;23129;49.662;8.448;2023-07-13T12:55:25;100785.31;;;28.88;33.44
37238;BME280;23129;49.662;8.448;2023-07-13T12:58:03;100786.63;;;28.66;34.01
37238;BME280;23129;49.662;8.448;2023-07-13T13:00:35;100788.69;;;28.54;34.39
37238;BME280;23129;49.662;8.448;2023-07-13T13:03:12;100787.66;;;28.28;34.65
37238;BME280;23129;49.662;8.448;2023-07-13T13:06:04;100788.00;;;28.05;35.21
37238;BME280;23129;49.662;8.448;2023-07-13T13:08:34;100783.13;;;27.81;35.03
37238;BME280;23129;49.662;8.448;2023-07-13T13:11:03;100782.69;;;27.66;35.30
37238;BME280;23129;49.662;8.448;2023-07-13T13:13:33;100794.22;;;27.49;35.47